Terminal Aerodrome Forecast
Issued by NWS

Home | Current Version | Previous Version | Text Only | Print | Product List | Glossary On
Versions: 1 2 3 4 5 6 7 8 9 10 11 12 13 14 15 16 17 18 19
000
FTUS43 KGRR 161724
TAFBTL
TAF
KBTL 161724Z 1618/1718 23008KT P6SM -SHSN SCT025 BKN035
      TEMPO 1618/1621 2SM -SHSN BKN025
     FM162200 32006KT P6SM SCT040
     FM170900 24006KT 3SM -SHSN OVC025
     FM171300 24010KT P6SM VCSH OVC025
     FM171600 25014G24KT P6SM SCT080=

USA.gov is the U.S. government's official web portal to all federal, state and local government web resources and services.